Time;durP1;ratioP1;P1;durP2;ratioP2;P2;SDS_P1;SDS_P2;PMS_P1;PMS_P2;Temp;Humidity;BMP_temperature;BMP_pressure;BME280_temperature;BME280_humidity;BME280_pressure;Samples;Min_cycle;Max_cycle;Signal;HPM_P1;HPM_P2
2022/04/08 00:00:13;;;;;;;7.13;1.40;;;6.90;99.90;;;;;;5127262;27;20027;-47
2022/04/08 00:02:39;;;;;;;3.63;1.50;;;6.90;99.90;;;;;;5127785;27;20031;-47
2022/04/08 00:05:09;;;;;;;10.25;1.60;;;6.80;99.90;;;;;;5129559;27;20026;-47
2022/04/08 00:07:35;;;;;;;8.10;1.70;;;6.90;99.90;;;;;;5129783;27;20016;-47
2022/04/08 00:10:00;;;;;;;4.03;1.60;;;6.90;99.90;;;;;;5128578;27;20031;-49
2022/04/08 00:12:26;;;;;;;9.23;1.45;;;6.90;99.90;;;;;;5129586;27;20369;-47
2022/04/08 00:14:51;;;;;;;8.10;1.80;;;7.00;99.90;;;;;;5129740;28;20065;-46
2022/04/08 00:17:17;;;;;;;5.95;1.90;;;7.00;99.90;;;;;;5129480;27;20023;-46
2022/04/08 00:19:42;;;;;;;5.68;1.85;;;7.00;99.90;;;;;;5128603;27;20032;-46
2022/04/08 00:22:08;;;;;;;5.35;1.60;;;7.00;99.90;;;;;;5129324;27;20452;-46
2022/04/08 00:24:33;;;;;;;5.53;1.98;;;7.00;99.90;;;;;;5129108;27;20057;-46
2022/04/08 00:26:59;;;;;;;4.70;2.03;;;7.00;99.90;;;;;;5129177;28;20513;-47
2022/04/08 00:29:24;;;;;;;4.18;1.48;;;7.00;99.90;;;;;;5128311;27;20030;-46
2022/04/08 00:31:57;;;;;;;7.55;1.58;;;7.00;99.90;;;;;;5129062;27;20034;-47
2022/04/08 00:34:24;;;;;;;3.47;1.30;;;7.10;99.90;;;;;;5128938;27;20020;-47
2022/04/08 00:36:49;;;;;;;3.13;1.33;;;7.10;99.90;;;;;;5129388;27;20556;-49
2022/04/08 00:39:18;;;;;;;2.40;1.42;;;7.10;99.90;;;;;;5128356;27;20039;-50
2022/04/08 00:41:43;;;;;;;2.78;1.98;;;7.10;99.90;;;;;;5128930;27;20245;-47
2022/04/08 00:44:10;;;;;;;2.42;1.20;;;7.00;99.90;;;;;;5131802;27;20404;-47
2022/04/08 00:46:38;;;;;;;5.38;1.83;;;7.00;99.90;;;;;;5132582;27;20585;-47
2022/04/08 00:49:04;;;;;;;4.55;1.38;;;7.00;99.90;;;;;;5131883;27;20023;-48
2022/04/08 00:51:31;;;;;;;2.38;1.10;;;7.00;99.90;;;;;;5133157;27;20011;-46
2022/04/08 00:53:58;;;;;;;4.40;1.20;;;7.00;99.90;;;;;;5132730;27;20278;-47
2022/04/08 00:56:24;;;;;;;5.25;1.42;;;7.00;99.90;;;;;;5132661;27;20015;-47
2022/04/08 00:58:50;;;;;;;8.88;2.83;;;6.90;99.90;;;;;;5131328;27;20054;-47
2022/04/08 01:01:16;;;;;;;2.47;1.02;;;6.90;99.90;;;;;;5131536;27;20184;-49
2022/04/08 01:03:41;;;;;;;3.40;1.40;;;7.00;99.90;;;;;;5132000;27;20464;-47
2022/04/08 01:06:07;;;;;;;4.38;1.27;;;6.90;99.90;;;;;;5131573;27;20031;-48
2022/04/08 01:08:36;;;;;;;2.58;1.17;;;7.00;99.90;;;;;;5130844;27;20031;-46
2022/04/08 01:11:03;;;;;;;1.88;1.23;;;6.90;99.90;;;;;;5131557;27;20026;-47
2022/04/08 01:13:28;;;;;;;6.03;1.30;;;6.90;99.90;;;;;;5131689;27;20023;-47
2022/04/08 01:15:54;;;;;;;5.88;1.63;;;6.90;99.90;;;;;;5131388;27;20026;-47
2022/04/08 01:18:19;;;;;;;5.85;1.92;;;6.90;99.90;;;;;;5131293;27;20023;-47
2022/04/08 01:20:45;;;;;;;3.95;1.40;;;6.90;99.90;;;;;;5130459;27;20487;-48
2022/04/08 01:23:11;;;;;;;4.40;1.48;;;6.90;99.90;;;;;;5131409;27;20023;-46
2022/04/08 01:25:37;;;;;;;8.05;1.58;;;6.90;99.90;;;;;;5131086;27;20019;-47
2022/04/08 01:28:02;;;;;;;3.08;1.27;;;6.90;99.90;;;;;;5130054;27;20026;-49
2022/04/08 01:30:28;;;;;;;5.70;1.75;;;6.90;99.90;;;;;;5130765;27;20029;-47
2022/04/08 01:32:53;;;;;;;7.07;1.35;;;6.80;99.90;;;;;;5131083;27;20403;-47
2022/04/08 01:35:19;;;;;;;8.05;1.58;;;6.90;99.90;;;;;;5131178;27;20016;-47
2022/04/08 01:37:44;;;;;;;2.47;1.25;;;6.90;99.90;;;;;;5130899;27;20271;-49
2022/04/08 01:40:10;;;;;;;3.40;1.38;;;7.00;99.90;;;;;;5130420;27;20472;-48
2022/04/08 01:42:36;;;;;;;7.53;1.50;;;6.90;99.90;;;;;;5130958;27;20027;-47
2022/04/08 01:45:02;;;;;;;3.67;1.75;;;7.00;99.90;;;;;;5130959;27;20441;-47
2022/04/08 01:47:27;;;;;;;3.63;1.25;;;7.00;99.90;;;;;;5131276;27;20537;-59
2022/04/08 01:49:53;;;;;;;5.63;1.58;;;7.00;99.90;;;;;;5131167;27;20050;-60
2022/04/08 01:52:18;;;;;;;4.05;1.38;;;6.90;99.90;;;;;;5131230;27;20022;-60
2022/04/08 01:54:44;;;;;;;4.38;1.38;;;6.90;99.90;;;;;;5130474;27;20019;-60
2022/04/08 01:57:09;;;;;;;4.00;1.48;;;6.90;99.90;;;;;;5131448;27;20412;-59
2022/04/08 01:59:35;;;;;;;3.63;1.50;;;7.00;99.90;;;;;;5131028;27;20088;-59
2022/04/08 02:02:00;;;;;;;2.65;0.93;;;6.90;99.90;;;;;;5129825;27;20492;-59
2022/04/08 02:04:27;;;;;;;8.70;1.42;;;7.00;99.90;;;;;;5129701;27;20114;-59
2022/04/08 02:06:52;;;;;;;3.92;1.10;;;6.90;99.90;;;;;;5131036;27;20064;-59
2022/04/08 02:09:18;;;;;;;5.78;1.65;;;6.90;99.90;;;;;;5130341;27;20427;-59
2022/04/08 02:11:44;;;;;;;2.30;1.00;;;6.80;99.90;;;;;;5131091;27;20011;-59
2022/04/08 02:14:10;;;;;;;6.05;1.27;;;6.70;99.90;;;;;;5130924;27;20019;-59
2022/04/08 02:16:35;;;;;;;3.15;1.48;;;6.60;99.90;;;;;;5130825;27;20015;-59
2022/04/08 02:19:01;;;;;;;3.35;1.25;;;6.60;99.90;;;;;;5129922;27;20142;-59
2022/04/08 02:21:27;;;;;;;4.65;1.58;;;6.50;99.90;;;;;;5130847;27;20072;-59
2022/04/08 02:23:53;;;;;;;6.18;1.58;;;6.40;99.90;;;;;;5112513;27;20272;-59
2022/04/08 02:26:19;;;;;;;4.00;1.02;;;6.40;99.90;;;;;;5131375;27;20054;-59
2022/04/08 02:28:45;;;;;;;3.90;1.60;;;6.40;99.90;;;;;;5130119;27;20062;-59
2022/04/08 02:31:11;;;;;;;2.83;1.42;;;6.40;99.90;;;;;;5130629;27;20024;-59
2022/04/08 02:33:37;;;;;;;3.15;1.75;;;6.30;99.90;;;;;;5130535;27;20295;-60
2022/04/08 02:36:04;;;;;;;6.30;1.50;;;6.30;99.90;;;;;;5130517;27;20174;-60
2022/04/08 02:38:31;;;;;;;3.88;1.33;;;6.40;99.90;;;;;;5130404;27;20023;-59
2022/04/08 02:40:56;;;;;;;4.88;1.83;;;6.30;99.90;;;;;;5129667;27;20484;-58
2022/04/08 02:43:22;;;;;;;6.20;1.83;;;6.20;99.90;;;;;;5130398;27;20019;-58
2022/04/08 02:45:48;;;;;;;5.40;1.40;;;6.20;99.90;;;;;;5130622;27;20019;-58
2022/04/08 02:48:14;;;;;;;6.15;2.13;;;6.20;99.90;;;;;;5130216;27;20408;-58
2022/04/08 02:50:40;;;;;;;2.47;1.25;;;6.20;99.90;;;;;;5128164;27;20023;-58
2022/04/08 02:53:09;;;;;;;7.15;1.55;;;6.30;99.90;;;;;;5129994;27;20023;-58
2022/04/08 02:55:37;;;;;;;5.22;1.80;;;6.30;99.90;;;;;;5126618;27;20039;-59
2022/04/08 02:58:03;;;;;;;5.75;1.55;;;6.30;99.90;;;;;;5140509;27;20019;-59
2022/04/08 03:00:29;;;;;;;8.35;2.55;;;6.30;99.90;;;;;;5150241;27;20073;-59
2022/04/08 03:02:54;;;;;;;6.40;1.80;;;6.20;99.90;;;;;;5150748;27;20105;-60
2022/04/08 03:05:20;;;;;;;4.32;1.98;;;6.20;99.90;;;;;;5151028;27;20038;-59
2022/04/08 03:07:45;;;;;;;4.90;1.85;;;6.20;99.90;;;;;;5150947;27;20019;-59
2022/04/08 03:10:12;;;;;;;4.13;1.60;;;6.20;99.90;;;;;;5148649;27;20391;-59
2022/04/08 03:12:38;;;;;;;5.68;1.77;;;6.20;99.90;;;;;;5150536;27;20015;-60
2022/04/08 03:15:04;;;;;;;6.30;1.63;;;6.20;99.90;;;;;;5150554;27;20026;-59
2022/04/08 03:17:30;;;;;;;7.75;1.80;;;6.20;99.90;;;;;;5150309;27;20088;-60
2022/04/08 03:19:56;;;;;;;9.55;2.05;;;6.20;99.90;;;;;;5148355;27;20076;-59
2022/04/08 03:22:23;;;;;;;5.70;2.42;;;6.20;99.90;;;;;;5150649;27;20079;-59
2022/04/08 03:24:48;;;;;;;8.30;2.40;;;6.20;99.90;;;;;;5150508;27;20091;-60
2022/04/08 03:27:15;;;;;;;9.50;1.70;;;6.10;99.90;;;;;;5150630;27;20030;-59
2022/04/08 03:29:40;;;;;;;7.32;2.00;;;6.10;99.90;;;;;;5149857;27;20026;-59
2022/04/08 03:32:06;;;;;;;6.20;1.98;;;6.10;99.90;;;;;;5150500;27;20025;-59
2022/04/08 03:34:33;;;;;;;5.03;1.65;;;6.10;99.90;;;;;;5150178;27;20022;-60
2022/04/08 03:36:58;;;;;;;5.68;2.33;;;6.10;99.90;;;;;;5150226;27;20018;-58
2022/04/08 03:39:24;;;;;;;6.63;2.08;;;6.10;99.90;;;;;;5149439;27;20071;-59
2022/04/08 03:41:49;;;;;;;6.80;2.28;;;6.10;99.90;;;;;;5150148;27;20054;-59
2022/04/08 03:44:15;;;;;;;8.30;1.88;;;6.10;99.90;;;;;;5146786;27;20030;-58
2022/04/08 03:46:45;;;;;;;4.90;1.63;;;6.10;99.90;;;;;;5119766;27;20800;-58
2022/04/08 03:49:14;;;;;;;5.47;1.52;;;6.10;99.90;;;;;;5122703;27;20031;-58
2022/04/08 03:51:41;;;;;;;10.52;2.15;;;6.10;99.90;;;;;;5117816;28;20414;-58
2022/04/08 03:54:07;;;;;;;5.40;2.22;;;6.10;99.90;;;;;;5114711;28;20069;-58
2022/04/08 03:56:33;;;;;;;4.22;2.03;;;6.10;99.90;;;;;;5117912;27;20464;-58
2022/04/08 03:58:58;;;;;;;7.13;2.17;;;6.10;99.90;;;;;;5118267;27;20032;-58
2022/04/08 04:01:24;;;;;;;7.22;2.33;;;6.20;99.90;;;;;;5123310;27;20031;-58
2022/04/08 04:03:49;;;;;;;5.63;2.42;;;6.10;99.90;;;;;;5129180;28;20031;-58
2022/04/08 04:06:15;;;;;;;6.03;2.03;;;6.10;99.90;;;;;;5127968;28;20026;-59
2022/04/08 04:08:41;;;;;;;5.00;1.75;;;6.00;99.90;;;;;;5128248;27;20464;-59
2022/04/08 04:11:06;;;;;;;3.38;2.00;;;6.00;99.90;;;;;;5129610;27;20667;-59
2022/04/08 04:13:32;;;;;;;4.13;1.60;;;5.90;99.90;;;;;;5129244;27;20460;-59
2022/04/08 04:15:57;;;;;;;2.47;1.38;;;5.80;99.90;;;;;;5129371;28;20016;-59
2022/04/08 04:18:25;;;;;;;6.95;1.90;;;5.80;99.90;;;;;;5131153;27;20047;-58
2022/04/08 04:20:50;;;;;;;2.90;1.45;;;5.70;99.90;;;;;;5132838;27;20441;-59
2022/04/08 04:23:16;;;;;;;4.60;1.27;;;5.60;99.90;;;;;;5133691;27;20019;-58
2022/04/08 04:25:41;;;;;;;4.93;1.77;;;5.60;99.90;;;;;;5133529;27;20047;-59
2022/04/08 04:28:07;;;;;;;3.15;1.60;;;5.60;99.90;;;;;;5133164;27;20640;-58
2022/04/08 04:30:33;;;;;;;5.13;1.63;;;5.60;99.90;;;;;;5132488;27;20035;-59
2022/04/08 04:33:00;;;;;;;5.18;1.80;;;5.60;99.90;;;;;;5133212;27;20053;-59
2022/04/08 04:35:26;;;;;;;7.03;1.67;;;5.60;99.90;;;;;;5133029;27;20068;-60
2022/04/08 04:37:51;;;;;;;4.93;1.45;;;5.60;99.90;;;;;;5131475;27;20019;-59
2022/04/08 04:40:17;;;;;;;3.85;1.33;;;5.60;99.90;;;;;;5132181;27;20118;-59
2022/04/08 04:42:42;;;;;;;6.45;1.92;;;5.50;99.90;;;;;;5132692;27;20034;-59
2022/04/08 04:45:08;;;;;;;4.13;1.40;;;5.50;99.90;;;;;;5132849;27;20023;-59
2022/04/08 04:47:34;;;;;;;7.13;2.10;;;5.50;99.90;;;;;;5132541;27;20059;-60
2022/04/08 04:49:59;;;;;;;4.05;1.90;;;5.60;99.90;;;;;;5128752;27;20466;-59
2022/04/08 04:52:25;;;;;;;6.97;2.10;;;5.60;99.90;;;;;;5127977;27;20029;-59
2022/04/08 04:54:50;;;;;;;7.60;2.50;;;5.60;99.90;;;;;;5131077;27;20019;-59
2022/04/08 04:57:17;;;;;;;7.07;3.15;;;5.60;99.90;;;;;;5128535;27;20511;-60
2022/04/08 04:59:42;;;;;;;6.60;2.20;;;5.60;99.90;;;;;;5142220;27;20436;-59
2022/04/08 05:02:08;;;;;;;6.03;2.30;;;5.50;99.90;;;;;;5138790;27;20123;-59
2022/04/08 05:04:35;;;;;;;3.97;2.10;;;5.40;99.90;;;;;;5147829;27;20027;-60
2022/04/08 05:07:00;;;;;;;2.90;1.83;;;5.30;99.90;;;;;;5136720;27;20430;-59
2022/04/08 05:09:26;;;;;;;5.53;3.05;;;5.20;99.90;;;;;;5143821;27;20027;-59
2022/04/08 05:11:51;;;;;;;2.40;1.40;;;5.10;99.90;;;;;;5143715;27;20291;-59
2022/04/08 05:14:17;;;;;;;4.35;1.90;;;5.10;99.90;;;;;;5137477;27;20051;-59
2022/04/08 05:16:42;;;;;;;4.38;1.20;;;5.00;99.90;;;;;;5149096;27;20019;-59
2022/04/08 05:19:08;;;;;;;3.67;1.30;;;4.90;99.90;;;;;;5133188;27;20403;-59
2022/04/08 05:21:34;;;;;;;4.93;1.40;;;4.80;99.90;;;;;;5132131;27;20035;-58
2022/04/08 05:23:59;;;;;;;4.38;1.90;;;4.70;99.90;;;;;;5132029;27;20027;-59
2022/04/08 05:26:25;;;;;;;4.00;1.52;;;4.70;99.90;;;;;;5134810;27;20014;-59
2022/04/08 05:28:50;;;;;;;4.35;1.60;;;4.60;99.90;;;;;;5140686;27;20038;-59
2022/04/08 05:31:16;;;;;;;4.78;1.60;;;4.50;99.90;;;;;;5127157;27;20016;-58
2022/04/08 05:33:41;;;;;;;5.93;1.42;;;4.40;99.90;;;;;;5125277;27;20020;-59
2022/04/08 05:36:07;;;;;;;7.53;1.75;;;4.30;99.90;;;;;;5131795;27;20015;-59
2022/04/08 05:38:32;;;;;;;7.47;1.30;;;4.30;99.90;;;;;;5131319;27;20020;-59
2022/04/08 05:40:58;;;;;;;2.83;1.60;;;4.30;99.90;;;;;;5131768;27;20019;-59
2022/04/08 05:43:23;;;;;;;4.28;1.38;;;4.30;99.90;;;;;;5132034;27;20028;-59
2022/04/08 05:45:49;;;;;;;8.13;1.70;;;4.40;99.90;;;;;;5131546;27;20102;-59
2022/04/08 05:48:14;;;;;;;3.47;1.95;;;4.40;99.90;;;;;;5131769;27;20480;-59
2022/04/08 05:50:40;;;;;;;2.85;1.60;;;4.50;99.90;;;;;;5131060;27;20034;-59
2022/04/08 05:53:05;;;;;;;8.23;2.67;;;4.60;99.90;;;;;;5131666;27;20098;-59
2022/04/08 05:55:31;;;;;;;5.97;1.48;;;4.50;99.90;;;;;;5139861;27;20075;-59
2022/04/08 05:57:56;;;;;;;4.88;1.13;;;4.50;99.90;;;;;;5152100;27;20019;-59
2022/04/08 06:00:23;;;;;;;6.57;2.55;;;4.50;99.90;;;;;;5149762;27;20390;-59
2022/04/08 06:02:49;;;;;;;4.57;1.30;;;4.50;99.90;;;;;;5123510;27;20027;-59
2022/04/08 06:05:18;;;;;;;4.50;1.60;;;4.50;99.90;;;;;;5120969;27;20023;-59
2022/04/08 06:07:49;;;;;;;5.22;1.13;;;4.50;99.90;;;;;;5125193;27;20034;-58
2022/04/08 06:10:18;;;;;;;1.50;0.75;;;4.50;99.90;;;;;;5127892;27;20132;-59
2022/04/08 06:12:46;;;;;;;3.90;1.08;;;4.50;99.90;;;;;;5131158;27;20047;-59
2022/04/08 06:15:11;;;;;;;3.60;1.08;;;4.50;99.90;;;;;;5130965;27;20027;-59
2022/04/08 06:17:37;;;;;;;3.33;1.08;;;4.50;99.90;;;;;;5119346;27;20020;-59
2022/04/08 06:20:07;;;;;;;4.88;1.25;;;4.50;99.90;;;;;;5109071;28;20459;-59
2022/04/08 06:22:33;;;;;;;4.43;1.30;;;4.60;99.90;;;;;;5109829;28;20084;-59
2022/04/08 06:24:58;;;;;;;5.05;2.10;;;4.60;99.90;;;;;;5108658;28;20664;-59
2022/04/08 06:27:24;;;;;;;8.00;1.65;;;4.60;99.90;;;;;;5109951;28;20397;-58
2022/04/08 06:29:49;;;;;;;3.38;1.23;;;4.60;99.90;;;;;;5109277;28;20055;-59
2022/04/08 06:32:15;;;;;;;4.05;1.20;;;4.70;99.90;;;;;;5109758;28;20046;-59
2022/04/08 06:34:40;;;;;;;9.25;1.77;;;4.70;99.90;;;;;;5109987;28;20023;-59
2022/04/08 06:37:06;;;;;;;5.70;1.77;;;4.80;99.90;;;;;;5109775;28;20020;-59
2022/04/08 06:39:31;;;;;;;6.53;1.55;;;4.80;99.90;;;;;;5109007;28;20056;-58
2022/04/08 06:41:57;;;;;;;6.78;1.50;;;4.90;99.90;;;;;;5109194;28;20054;-59
2022/04/08 06:44:23;;;;;;;3.72;1.15;;;4.90;99.90;;;;;;5109732;28;20081;-59
2022/04/08 06:46:48;;;;;;;8.95;1.88;;;5.10;99.90;;;;;;5109596;28;20038;-59
2022/04/08 06:49:14;;;;;;;7.78;1.27;;;5.30;99.90;;;;;;5108421;28;20057;-58
2022/04/08 06:51:39;;;;;;;3.17;1.23;;;5.40;99.90;;;;;;5108320;28;20066;-59
2022/04/08 06:54:05;;;;;;;9.30;2.22;;;5.60;99.90;;;;;;5110070;28;20099;-59
2022/04/08 06:56:30;;;;;;;6.13;1.35;;;5.80;99.90;;;;;;5110008;28;20545;-59
2022/04/08 06:58:56;;;;;;;5.10;1.30;;;5.90;99.90;;;;;;5109348;28;20019;-59
2022/04/08 07:01:23;;;;;;;8.93;1.88;;;5.90;99.90;;;;;;5109779;28;20119;-59
2022/04/08 07:03:48;;;;;;;4.95;1.42;;;6.00;99.90;;;;;;5109891;28;20102;-59
2022/04/08 07:06:14;;;;;;;5.80;1.35;;;6.00;99.90;;;;;;5109629;28;20095;-58
2022/04/08 07:08:39;;;;;;;5.30;1.40;;;5.90;99.90;;;;;;5108770;28;20030;-59
2022/04/08 07:11:05;;;;;;;5.07;1.05;;;5.90;99.90;;;;;;5109270;28;20019;-59
2022/04/08 07:13:30;;;;;;;6.70;1.20;;;5.80;99.90;;;;;;5109523;28;20015;-59
2022/04/08 07:15:56;;;;;;;3.60;1.10;;;5.70;99.90;;;;;;5109384;28;20121;-59
2022/04/08 07:18:21;;;;;;;9.70;1.10;;;5.50;99.90;;;;;;5109187;28;20031;-58
2022/04/08 07:20:47;;;;;;;5.22;1.27;;;5.50;99.90;;;;;;5108950;28;20512;-59
2022/04/08 07:23:13;;;;;;;4.28;1.38;;;5.50;99.90;;;;;;5109005;28;20072;-46
2022/04/08 07:25:39;;;;;;;5.78;1.70;;;5.50;99.90;;;;;;5107850;28;20125;-48
2022/04/08 07:28:05;;;;;;;6.68;1.63;;;5.50;99.90;;;;;;5109411;28;20076;-48
2022/04/08 07:30:30;;;;;;;2.80;1.58;;;5.80;99.90;;;;;;5107164;28;20027;-47
2022/04/08 07:32:56;;;;;;;4.25;1.55;;;6.10;99.90;;;;;;5109260;28;20012;-50
2022/04/08 07:35:23;;;;;;;7.10;1.30;;;6.50;99.90;;;;;;5109125;28;20148;-46
2022/04/08 07:37:49;;;;;;;3.55;1.30;;;7.20;99.90;;;;;;5108912;28;20390;-47
2022/04/08 07:40:15;;;;;;;6.40;1.77;;;7.30;99.90;;;;;;5108591;28;20020;-49
2022/04/08 07:42:40;;;;;;;4.22;1.52;;;7.40;99.90;;;;;;5108921;28;20523;-47
2022/04/08 07:45:07;;;;;;;5.72;1.67;;;7.40;99.90;;;;;;5108971;28;20493;-46
2022/04/08 07:47:33;;;;;;;7.05;1.45;;;7.30;99.90;;;;;;5109049;28;20038;-49
2022/04/08 07:50:01;;;;;;;4.05;1.73;;;7.60;99.90;;;;;;5106910;28;20189;-50
2022/04/08 07:52:27;;;;;;;5.22;1.73;;;7.90;99.90;;;;;;5109161;28;20015;-49
2022/04/08 07:54:54;;;;;;;7.05;1.88;;;8.20;99.90;;;;;;5113870;28;20118;-47
2022/04/08 07:57:19;;;;;;;5.68;1.60;;;8.50;99.90;;;;;;5113519;28;20496;-49
2022/04/08 07:59:45;;;;;;;8.45;1.73;;;8.50;99.90;;;;;;5112679;28;20035;-48
2022/04/08 08:02:10;;;;;;;8.98;1.70;;;8.40;99.90;;;;;;5113046;28;20439;-48
2022/04/08 08:04:37;;;;;;;10.80;1.80;;;8.20;99.90;;;;;;5113229;28;20047;-48
2022/04/08 08:07:02;;;;;;;5.75;1.92;;;8.00;99.90;;;;;;5112973;28;20095;-50
2022/04/08 08:09:28;;;;;;;6.85;2.28;;;7.80;99.90;;;;;;5112181;28;20118;-49
2022/04/08 08:11:53;;;;;;;9.50;2.10;;;7.50;99.90;;;;;;5113325;28;20034;-49
2022/04/08 08:14:19;;;;;;;11.70;2.42;;;7.50;99.90;;;;;;5113188;28;20035;-50
2022/04/08 08:16:44;;;;;;;8.68;2.00;;;7.90;99.90;;;;;;5112756;28;20074;-50
2022/04/08 08:19:11;;;;;;;6.68;1.25;;;8.70;99.90;;;;;;5112046;28;20020;-47
2022/04/08 08:21:36;;;;;;;9.43;1.73;;;9.80;99.90;;;;;;5125576;27;20030;-47
2022/04/08 08:24:02;;;;;;;6.70;1.63;;;10.60;98.20;;;;;;5133092;27;20023;-48
2022/04/08 08:26:29;;;;;;;11.23;2.15;;;10.20;99.90;;;;;;5133261;27;20023;-48
2022/04/08 08:28:55;;;;;;;10.38;2.08;;;9.70;99.90;;;;;;5132344;27;20484;-48
2022/04/08 08:31:22;;;;;;;7.95;2.17;;;9.50;99.90;;;;;;5132922;27;20038;-46
2022/04/08 08:33:47;;;;;;;10.40;2.13;;;10.20;99.60;;;;;;5133775;27;20026;-48
2022/04/08 08:36:13;;;;;;;5.30;1.88;;;10.60;97.20;;;;;;5132624;27;20023;-50
2022/04/08 08:38:38;;;;;;;8.70;2.33;;;10.50;97.40;;;;;;5132249;27;20072;-47
2022/04/08 08:41:06;;;;;;;7.65;1.90;;;10.60;96.50;;;;;;5131311;27;20519;-50
2022/04/08 08:43:32;;;;;;;11.73;2.47;;;10.50;96.80;;;;;;5124712;27;20434;-47
2022/04/08 08:46:01;;;;;;;10.45;2.10;;;11.10;97.20;;;;;;5112118;28;20020;-49
2022/04/08 08:48:30;;;;;;;8.20;2.20;;;11.00;95.30;;;;;;5112261;28;20525;-48
2022/04/08 08:51:00;;;;;;;5.97;1.90;;;11.20;96.00;;;;;;5111489;28;20026;-46
2022/04/08 08:53:29;;;;;;;7.53;2.08;;;11.60;94.70;;;;;;5111922;28;20074;-49
2022/04/08 08:55:55;;;;;;;5.55;2.15;;;11.50;93.70;;;;;;5110483;28;20046;-53
2022/04/08 08:58:21;;;;;;;5.18;1.88;;;10.70;93.60;;;;;;5110424;28;20424;-49
2022/04/08 09:00:47;;;;;;;10.75;2.15;;;10.20;95.20;;;;;;5109720;28;20264;-47
2022/04/08 09:03:13;;;;;;;8.32;2.08;;;9.70;95.50;;;;;;5110127;28;20651;-48
2022/04/08 09:05:41;;;;;;;10.88;2.33;;;9.40;97.40;;;;;;5110256;28;20418;-47
2022/04/08 09:08:08;;;;;;;7.57;2.35;;;8.90;99.20;;;;;;5110343;28;20111;-48
2022/04/08 09:10:40;;;;;;;10.60;1.92;;;8.40;99.50;;;;;;5110833;28;20030;-46
2022/04/08 09:13:10;;;;;;;4.45;1.92;;;8.00;99.90;;;;;;5111699;28;20035;-47
2022/04/08 09:15:40;;;;;;;6.43;2.50;;;7.60;99.90;;;;;;5111534;28;20019;-47
2022/04/08 09:18:14;;;;;;;12.23;2.88;;;7.40;99.90;;;;;;5111767;28;20047;-48
2022/04/08 09:20:48;;;;;;;11.68;3.92;;;7.40;99.90;;;;;;5110824;28;20036;-49
2022/04/08 09:23:15;;;;;;;12.35;2.83;;;7.50;99.90;;;;;;5111660;28;20077;-46
2022/04/08 09:25:41;;;;;;;13.93;2.65;;;7.60;99.90;;;;;;5111618;28;20480;-48
2022/04/08 09:28:11;;;;;;;6.68;1.98;;;9.00;99.90;;;;;;5111304;28;20227;-48
2022/04/08 09:30:37;;;;;;;;;;;9.90;99.20;;;;;;5111022;28;20023;-50
2022/04/08 09:33:18;;;;;;;7.82;2.15;;;10.20;97.90;;;;;;5111308;28;19910;-50
2022/04/08 09:35:45;;;;;;;11.32;2.40;;;9.70;97.90;;;;;;5111503;28;20031;-48
2022/04/08 09:38:10;;;;;;;6.60;2.25;;;9.40;98.40;;;;;;5111521;28;20055;-49
2022/04/08 09:40:42;;;;;;;10.95;2.10;;;9.10;99.20;;;;;;5110345;28;20073;-49
2022/04/08 09:43:08;;;;;;;7.95;2.05;;;8.70;99.90;;;;;;5109748;28;20459;-46
2022/04/08 09:45:34;;;;;;;8.02;2.10;;;8.60;99.90;;;;;;5111084;28;20098;-47
2022/04/08 09:48:02;;;;;;;8.95;2.35;;;8.50;99.90;;;;;;5111035;28;20072;-50
2022/04/08 09:50:28;;;;;;;6.65;1.80;;;8.20;99.90;;;;;;5110425;28;20034;-50
2022/04/08 09:52:54;;;;;;;8.30;3.33;;;8.20;99.90;;;;;;5111075;28;20024;-50
2022/04/08 09:55:22;;;;;;;7.30;2.13;;;8.20;99.20;;;;;;5111351;28;20148;-46
2022/04/08 09:57:50;;;;;;;8.77;2.17;;;8.10;99.10;;;;;;5111152;28;20019;-48
2022/04/08 10:00:16;;;;;;;11.68;2.10;;;8.00;99.40;;;;;;5110598;28;20027;-50
2022/04/08 10:02:45;;;;;;;7.63;2.20;;;7.70;99.90;;;;;;5110983;28;20373;-49
2022/04/08 10:05:11;;;;;;;6.07;1.90;;;7.80;99.90;;;;;;5111199;28;20028;-46
2022/04/08 10:07:38;;;;;;;5.93;2.10;;;7.90;99.90;;;;;;5109450;28;20028;-47
2022/04/08 10:10:26;;;;;;;10.55;2.13;;;8.00;99.90;;;;;;5109831;28;20032;-48
2022/04/08 10:12:57;;;;;;;5.82;1.90;;;8.00;99.90;;;;;;5110485;28;20016;-46
2022/04/08 10:15:39;;;;;;;9.25;2.50;;;8.00;99.90;;;;;;5109904;28;20456;-46
2022/04/08 10:18:05;;;;;;;7.15;2.35;;;7.90;99.90;;;;;;5110661;28;20016;-49
2022/04/08 10:20:33;;;;;;;10.40;2.25;;;7.90;99.90;;;;;;5109702;28;20107;-49
2022/04/08 10:23:10;;;;;;;7.13;2.45;;;7.80;99.90;;;;;;5110318;28;20441;-47
2022/04/08 10:25:40;;;;;;;8.13;2.47;;;7.70;99.90;;;;;;5110218;28;20023;-47
2022/04/08 10:28:07;;;;;;;5.30;3.00;;;7.70;99.90;;;;;;5108884;28;20032;-49
2022/04/08 10:30:35;;;;;;;8.60;2.30;;;7.60;99.90;;;;;;5109434;28;20122;-45
2022/04/08 10:33:04;;;;;;;12.80;2.72;;;7.50;99.90;;;;;;5110162;28;20018;-50
2022/04/08 10:35:30;;;;;;;12.27;4.68;;;7.50;99.90;;;;;;5108918;28;20502;-46
2022/04/08 10:38:05;;;;;;;5.80;2.70;;;7.40;99.90;;;;;;5110112;28;20099;-47
2022/04/08 10:40:33;;;;;;;5.85;1.95;;;7.30;99.90;;;;;;5109405;28;20102;-47
2022/04/08 10:43:02;;;;;;;11.05;2.72;;;7.40;99.90;;;;;;5106110;28;20034;-48
2022/04/08 10:45:29;;;;;;;8.13;2.70;;;7.70;99.90;;;;;;5118765;27;20046;-49
2022/04/08 10:47:59;;;;;;;8.10;2.50;;;7.90;99.90;;;;;;5130491;27;20054;-46
2022/04/08 10:50:26;;;;;;;7.00;2.72;;;7.90;99.90;;;;;;5129460;27;20071;-46
2022/04/08 10:53:12;;;;;;;5.05;2.75;;;7.80;99.90;;;;;;5130178;27;20025;-50
2022/04/08 10:55:51;;;;;;;7.72;3.05;;;8.00;99.90;;;;;;5128707;27;20041;-48
2022/04/08 10:58:34;;;;;;;9.30;2.63;;;8.10;99.90;;;;;;5129285;27;20023;-47
2022/04/08 11:01:00;;;;;;;8.25;2.47;;;8.10;99.90;;;;;;5129765;27;20024;-48
2022/04/08 11:03:29;;;;;;;10.07;2.15;;;8.30;99.90;;;;;;5128742;27;20020;-50
2022/04/08 11:05:55;;;;;;;8.18;2.58;;;8.40;99.90;;;;;;5130252;27;20338;-46
2022/04/08 11:08:25;;;;;;;7.90;2.85;;;8.40;99.90;;;;;;5128506;27;20023;-50
2022/04/08 11:11:00;;;;;;;7.07;2.50;;;8.30;99.90;;;;;;5127838;27;20429;-50
2022/04/08 11:13:26;;;;;;;11.45;3.00;;;8.30;99.90;;;;;;5128684;27;20188;-49
2022/04/08 11:15:52;;;;;;;10.77;2.58;;;8.30;99.90;;;;;;5129741;27;20248;-48
2022/04/08 11:18:18;;;;;;;7.57;2.38;;;8.30;99.90;;;;;;5129686;27;20019;-47
2022/04/08 11:20:52;;;;;;;9.55;2.80;;;9.00;99.90;;;;;;5129007;27;20019;-49
2022/04/08 11:23:29;;;;;;;9.13;2.50;;;9.80;99.90;;;;;;5128429;27;20049;-50
2022/04/08 11:25:55;;;;;;;6.63;2.08;;;10.70;99.90;;;;;;5128567;27;20515;-47
2022/04/08 11:28:22;;;;;;;7.43;2.25;;;11.70;99.10;;;;;;5128278;27;20039;-46
2022/04/08 11:30:57;;;;;;;8.60;2.70;;;12.80;94.40;;;;;;5128981;27;20023;-49
2022/04/08 11:33:22;;;;;;;10.32;2.45;;;13.40;91.40;;;;;;5129611;27;20496;-50
2022/04/08 11:35:57;;;;;;;8.82;2.70;;;13.90;90.70;;;;;;5128358;27;20045;-49
2022/04/08 11:38:23;;;;;;;11.00;1.98;;;13.70;89.70;;;;;;5129464;27;20023;-48
2022/04/08 11:40:50;;;;;;;7.15;2.50;;;13.20;90.40;;;;;;5128988;27;20019;-49
2022/04/08 11:43:16;;;;;;;7.03;2.25;;;12.90;90.50;;;;;;5128748;27;20480;-49
2022/04/08 11:45:52;;;;;;;6.35;2.35;;;12.30;89.60;;;;;;5129378;27;20211;-46
2022/04/08 11:48:20;;;;;;;9.73;2.25;;;11.60;89.10;;;;;;5129612;27;20058;-48
2022/04/08 11:50:47;;;;;;;9.48;2.60;;;11.00;89.10;;;;;;5128735;27;20019;-48
2022/04/08 11:53:18;;;;;;;7.57;2.75;;;10.50;90.00;;;;;;5129432;27;20023;-46
2022/04/08 11:56:05;;;;;;;9.38;2.60;;;10.20;91.80;;;;;;5128273;27;20076;-49
2022/04/08 11:58:31;;;;;;;7.45;2.60;;;9.90;92.60;;;;;;5129329;27;20434;-49
2022/04/08 12:01:00;;;;;;;8.68;2.40;;;9.60;94.50;;;;;;5128875;27;20027;-50
2022/04/08 12:03:30;;;;;;;5.90;2.30;;;9.40;94.40;;;;;;5128342;28;20034;-46
2022/04/08 12:05:56;;;;;;;12.43;4.03;;;9.20;93.90;;;;;;5129343;27;20495;-47
2022/04/08 12:08:22;;;;;;;11.25;2.20;;;9.00;94.40;;;;;;5127879;28;20031;-47
2022/04/08 12:10:53;;;;;;;7.65;2.35;;;8.80;95.40;;;;;;5128568;27;20046;-49
2022/04/08 12:13:24;;;;;;;10.40;2.65;;;8.70;96.40;;;;;;5129593;27;20031;-49
2022/04/08 12:15:54;;;;;;;6.57;2.47;;;8.70;96.50;;;;;;5129467;27;20031;-46
2022/04/08 12:18:22;;;;;;;6.03;2.47;;;8.70;96.30;;;;;;5129440;27;20567;-46
2022/04/08 12:20:52;;;;;;;9.15;2.35;;;8.80;97.30;;;;;;5128988;27;20562;-50
2022/04/08 12:23:21;;;;;;;9.23;2.50;;;8.80;97.00;;;;;;5129223;27;20019;-50
2022/04/08 12:25:53;;;;;;;7.05;2.58;;;9.20;96.00;;;;;;5129207;27;20027;-47
2022/04/08 12:28:22;;;;;;;8.77;2.00;;;9.70;95.00;;;;;;5129418;27;20023;-46
2022/04/08 12:30:47;;;;;;;7.00;2.50;;;10.10;93.30;;;;;;5128308;27;20023;-46
2022/04/08 12:33:13;;;;;;;6.97;2.33;;;10.30;91.90;;;;;;5128952;28;20077;-48
2022/04/08 12:35:38;;;;;;;9.10;2.90;;;10.40;90.30;;;;;;5127525;27;20023;-48
2022/04/08 12:38:04;;;;;;;4.22;2.20;;;10.50;93.10;;;;;;5128993;27;20406;-46
2022/04/08 12:40:31;;;;;;;6.22;2.30;;;10.70;91.20;;;;;;5131961;27;20453;-46
2022/04/08 12:42:57;;;;;;;8.68;1.90;;;10.70;90.20;;;;;;5132769;27;20054;-48
2022/04/08 12:45:22;;;;;;;8.70;2.65;;;10.60;90.20;;;;;;5133414;27;20464;-47
2022/04/08 12:47:48;;;;;;;5.70;1.92;;;10.50;91.60;;;;;;5131629;27;20023;-47
2022/04/08 12:50:13;;;;;;;3.53;2.47;;;10.70;90.90;;;;;;5131965;27;20110;-50
2022/04/08 12:52:41;;;;;;;6.55;2.60;;;10.70;90.10;;;;;;5132644;27;20042;-47